Latest Weather Observations for Camooweal

IDD60801

Issued at 2:31 pm CST Tuesday 24 January 2017 (issued every 30 minutes, with the page automatically refreshed every 10 minutes)

About weather observations | Map of weather stations | Latest weather observations for NT | Other Formats
Station Details ID: 037010 Name: CAMOOWEAL TOWNSHIP Lat: -19.92 Lon: 138.12 Height: 231.2 m
Data from the previous 72 hours. | See also: Recent months at Camooweal
Date/Time
CST
Temp
°C
App
Temp
°C
Dew
Point
°C
Rel
Hum
%
Delta-T
°C
Wind Press
QNH
hPa
Press
MSL
hPa
Rain since
9am
mm
Dir  Spd
km/h
Gust
km/h
Spd
kts
Gust
kts
24/02:30pm 31.9 37.7 26.0 71 4.2 NNW 7 15 4 8 1008.7 1006.9 1.0
24/02:00pm 31.8 31.3 22.8 59 6.2 NNE 30 43 16 23 1008.9 1007.1 0.0
24/01:30pm 35.0 35.9 22.7 49 8.6 ENE 22 35 12 19 1009.3 1007.5 0.0
24/01:00pm 34.9 36.3 22.9 49 8.4 NE 20 32 11 17 1009.8 1008.0 0.0
24/12:30pm 34.1 34.0 22.2 50 8.2 NE 26 35 14 19 1010.3 1008.5 0.0
24/12:00pm 32.2 33.5 22.3 56 6.8 NE 19 32 10 17 1010.8 1009.0 0.0
24/11:30am 32.0 33.6 23.3 60 6.1 NE 20 28 11 15 1011.3 1009.5 0.0
24/11:00am 31.4 32.3 22.7 60 6.0 NNE 22 32 12 17 1011.7 1009.9 0.0
24/10:30am 30.8 32.1 22.7 62 5.6 NNE 20 30 11 16 1012.0 1010.2 0.0
24/10:00am 31.3 32.2 23.4 63 5.5 NE 24 37 13 20 1012.2 1010.4 0.0
24/09:30am 30.3 31.4 23.7 68 4.6 NE 24 39 13 21 1012.3 1010.5 0.0
24/09:00am 29.7 32.1 24.3 73 3.8 NNE 19 30 10 16 1012.4 1010.6 0.0
24/08:30am 27.9 29.4 23.7 78 2.9 NE 22 32 12 17 1012.0 1010.2 12.8
24/08:00am 27.6 29.3 24.0 81 2.5 NNE 22 39 12 21 1011.4 1009.6 12.8
24/07:30am 27.3 29.5 24.2 83 2.2 NE 20 32 11 17 1010.5 1008.8 12.8
24/07:00am 26.2 29.3 24.2 89 1.4 NE 15 22 8 12 1009.9 1008.1 12.8
24/06:30am 25.5 28.7 24.3 93 0.8 NE 15 22 8 12 1009.5 1007.7 12.8
24/06:00am 25.0 28.6 24.3 96 0.5 NE 13 19 7 10 1008.9 1007.1 12.8
24/05:30am 24.9 28.8 24.2 96 0.5 NE 11 13 6 7 1008.6 1006.8 12.8
24/05:00am 25.1 28.7 24.4 96 0.5 NE 13 19 7 10 1008.2 1006.4 12.8
24/04:30am 24.9 29.2 24.2 96 0.5 ENE 9 13 5 7 1008.3 1006.5 12.8
24/04:00am 24.8 29.4 23.8 94 0.7 ENE 6 9 3 5 1008.4 1006.6 12.8
24/03:30am 24.8 29.2 23.8 94 0.7 E 7 11 4 6 1008.7 1006.9 12.8
24/03:00am 25.2 29.5 23.6 91 1.1 ENE 7 9 4 5 1008.7 1006.9 12.8
24/02:30am 25.7 29.7 23.7 89 1.4 NE 9 13 5 7 1009.0 1007.2 12.8
24/02:00am 25.9 29.5 23.8 88 1.5 NE 11 15 6 8 1009.2 1007.4 12.8
24/01:30am 26.0 30.1 24.0 89 1.4 NNE 9 11 5 6 1009.3 1007.5 12.8
24/01:00am 26.1 31.1 24.5 91 1.1 ENE 6 7 3 4 1009.8 1008.0 12.8
24/12:30am 26.5 31.4 24.7 90 1.3 NE 7 9 4 5 1010.1 1008.3 12.8
24/12:00am 26.6 31.7 25.0 91 1.1 ENE 7 9 4 5 1010.1 1008.3 12.8
 
Date/Time
CST
Temp
°C
App
Temp
°C
Dew
Point
°C
Rel
Hum
%
Delta-T
°C
Wind Press
QNH
hPa
Press
MSL
hPa
Rain since
9am
mm
Dir  Spd
km/h
Gust
km/h
Spd
kts
Gust
kts
23/11:30pm 26.6 31.9 25.0 91 1.1 ENE 6 7 3 4 1010.3 1008.5 12.8
23/11:00pm 26.5 32.8 24.7 90 1.3 CALM 0 0 0 0 1010.8 1009.0 12.8
23/10:30pm 27.0 31.5 24.6 87 1.7 NNE 9 13 5 7 1010.4 1008.6 12.8
23/10:00pm 27.2 31.8 24.7 86 1.8 NNE 9 13 5 7 1010.4 1008.6 12.8
23/09:30pm 27.5 31.6 24.6 84 2.0 NE 11 15 6 8 1010.3 1008.5 12.8
23/09:00pm 27.7 31.3 24.3 82 2.4 ENE 13 17 7 9 1010.1 1008.3 12.8
23/08:30pm 28.0 32.1 24.6 82 2.4 NE 11 17 6 9 1009.9 1008.1 12.8
23/08:00pm 27.9 31.5 24.3 81 2.5 NE 13 17 7 9 1009.7 1007.9 12.8
23/07:30pm 28.2 31.7 24.2 79 2.8 NE 13 20 7 11 1009.6 1007.8 12.8
23/07:00pm 28.8 31.5 24.1 76 3.3 NE 17 22 9 12 1009.3 1007.5 12.8
23/06:30pm 29.1 33.1 25.1 79 2.8 NE 13 20 7 11 1008.7 1006.9 12.8
23/06:00pm 29.0 33.6 26.0 84 2.1 ENE 13 22 7 12 1008.1 1006.3 12.8
23/05:30pm 27.5 32.8 25.9 91 1.1 ESE 9 15 5 8 1006.8 1005.0 12.8
23/05:00pm 25.3 29.4 23.0 87 1.6 S 6 11 3 6 1006.8 1005.0 12.8
23/04:37pm 23.4 20.7 21.3 88 1.4 NNE 37 72 20 39 1007.2 1005.4 12.0
23/04:30pm 24.0 20.7 19.3 75 3.0 NE 35 72 19 39 1007.3 1005.5 3.8
23/04:28pm 25.5 23.1 18.2 64 4.7 NNE 28 72 15 39 1006.7 1004.9 0.8
23/04:26pm 31.0 30.8 19.4 50 7.7 NNE 19 59 10 32 1006.6 1004.7 0.2
23/04:00pm 34.5 37.1 22.6 50 8.3 NE 13 20 7 11 1005.9 1004.1 0.2
23/03:30pm 33.2 35.4 23.2 55 7.0 NE 17 24 9 13 1006.2 1004.3 0.2
23/03:00pm 33.6 34.6 22.1 51 7.9 NNE 20 28 11 15 1006.3 1004.4 0.2
23/02:30pm 34.4 36.0 22.1 48 8.5 NE 17 26 9 14 1007.0 1005.2 0.2
23/02:00pm 34.5 35.6 21.9 48 8.7 NE 19 32 10 17 1007.4 1005.6 0.2
23/01:30pm 35.1 36.2 22.4 47 8.8 NNE 20 33 11 18 1007.9 1006.1 0.2
23/01:00pm 34.6 36.4 22.6 49 8.3 ENE 17 28 9 15 1008.0 1006.2 0.2
23/12:30pm 32.9 35.4 23.8 58 6.4 E 17 24 9 13 1008.5 1006.7 0.2
23/12:00pm 33.3 35.3 23.0 54 7.2 NNE 17 26 9 14 1009.0 1007.2 0.2
23/11:30am 33.5 35.7 23.2 54 7.2 NE 17 24 9 13 1009.3 1007.5 0.2
23/11:00am 32.2 35.2 23.4 59 6.1 NNE 13 24 7 13 1009.6 1007.8 0.2
23/10:30am 32.3 35.0 23.5 59 6.2 NE 15 24 8 13 1009.7 1007.9 0.2
23/10:00am 31.7 35.5 24.0 63 5.4 NNE 11 20 6 11 1009.7 1007.9 0.2
23/09:30am 31.3 36.0 24.9 69 4.5 NE 9 17 5 9 1009.6 1007.8 0.2
23/09:00am 29.8 33.7 24.2 72 3.9 NE 11 20 6 11 1009.4 1007.6 0.0
23/08:30am 29.3 33.3 25.1 78 3.0 NE 13 15 7 8 1009.2 1007.4 3.8
23/08:00am 27.9 33.0 24.7 83 2.2 NE 6 11 3 6 1008.9 1007.1 3.8
23/07:30am 26.6 31.0 24.4 88 1.5 ENE 9 15 5 8 1008.7 1006.9 3.8
23/07:00am 25.7 30.3 24.7 94 0.7 E 9 11 5 6 1008.6 1006.8 3.8
23/06:30am 25.0 29.7 24.3 96 0.5 ENE 7 13 4 7 1008.4 1006.6 3.8
23/06:00am 24.8 29.6 24.1 96 0.5 E 6 9 3 5 1008.2 1006.4 3.8
23/05:30am 24.8 29.5 24.3 97 0.3 ENE 7 9 4 5 1007.7 1005.9 3.8
23/05:00am 25.0 29.8 24.1 95 0.6 ENE 6 7 3 4 1007.5 1005.7 3.8
23/04:30am 25.0 30.6 23.6 92 1.0 CALM 0 0 0 0 1007.5 1005.7 3.8
23/04:00am 25.1 30.2 24.1 94 0.7 SSE 4 7 2 4 1007.7 1005.9 3.8
23/03:30am 25.1 29.7 24.2 95 0.6 SE 7 9 4 5 1007.9 1006.1 3.8
23/03:00am 25.3 30.2 24.6 96 0.5 SE 7 9 4 5 1007.7 1005.9 3.8
23/02:30am 25.7 31.0 25.2 97 0.4 NE 7 9 4 5 1007.6 1005.8 3.8
23/02:00am 25.3 30.2 24.4 95 0.6 SE 6 7 3 4 1008.1 1006.3 3.8
23/01:30am 25.4 31.7 24.7 96 0.5 CALM 0 7 0 4 1008.2 1006.4 3.8
23/01:00am 25.3 31.2 24.1 93 0.8 CALM 0 0 0 0 1008.3 1006.5 3.8
23/12:30am 25.1 29.7 24.2 95 0.6 ESE 7 9 4 5 1008.5 1006.7 3.8
23/12:00am 25.0 29.6 23.8 93 0.8 NNE 6 9 3 5 1008.8 1007.0 3.8
 
Date/Time
CST
Temp
°C
App
Temp
°C
Dew
Point
°C
Rel
Hum
%
Delta-T
°C
Wind Press
QNH
hPa
Press
MSL
hPa
Rain since
9am
mm
Dir  Spd
km/h
Gust
km/h
Spd
kts
Gust
kts
22/11:30pm 24.5 28.0 22.9 91 1.1 NW 9 15 5 8 1009.4 1007.6 3.8
22/11:00pm 25.4 28.5 24.2 93 0.8 NW 15 20 8 11 1009.7 1007.9 3.8
22/10:30pm 26.6 28.5 24.4 88 1.5 NE 22 32 12 17 1010.5 1008.8 3.2
22/10:00pm 28.8 33.6 24.4 77 3.1 E 7 11 4 6 1009.3 1007.5 0.2
22/09:30pm 29.0 34.6 24.8 78 3.0 E 4 7 2 4 1009.1 1007.3 0.2
22/09:00pm 28.6 33.2 24.8 80 2.7 SSE 9 13 5 7 1008.2 1006.4 0.2
22/08:30pm 28.9 35.0 24.5 77 3.1 CALM 0 0 0 0 1007.9 1006.1 0.2
22/08:00pm 29.0 33.3 23.7 73 3.7 NW 7 9 4 5 1007.1 1005.3 0.2
22/07:30pm 28.3 32.1 23.4 75 3.4 NNW 9 13 5 7 1007.2 1005.4 0.2
22/07:00pm 28.7 31.0 23.4 73 3.7 N 17 24 9 13 1007.4 1005.6 0.2
22/06:30pm 30.3 31.9 23.2 65 4.9 NE 20 41 11 22 1007.1 1005.3 0.2
22/06:00pm 30.2 33.3 23.6 67 4.6 SSE 13 17 7 9 1005.7 1003.9 0.2
22/05:30pm 29.8 32.9 23.5 69 4.4 SSE 13 17 7 9 1005.8 1004.0 0.2
22/05:00pm 29.6 33.5 24.9 76 3.3 SSE 13 17 7 9 1005.5 1003.7 0.2
22/04:30pm 31.1 31.4 23.0 62 5.6 E 26 37 14 20 1005.4 1003.6 0.0
22/04:00pm 35.5 38.6 23.5 50 8.4 SE 13 20 7 11 1005.2 1003.4 0.0
22/03:30pm 34.3 37.3 23.3 52 7.7 S 13 17 7 9 1005.6 1003.8 0.0
22/03:00pm 32.8 37.0 25.9 67 5.0 S 15 19 8 10 1006.7 1004.9 0.0
22/02:30pm 33.6 37.2 23.0 54 7.4 N 9 13 5 7 1007.3 1005.5 0.0
22/02:08pm 31.9 33.6 21.7 54 7.0 NE 15 39 8 21 1007.2 1005.4 0.0
22/02:00pm 37.2 39.6 20.9 38 11.1 NE 9 15 5 8 1007.4 1005.6 0.0
22/01:30pm 37.4 40.7 21.5 39 11.0 E 6 13 3 7 1007.8 1006.0 0.0
22/01:00pm 35.3 39.8 23.0 49 8.6 W 4 9 2 5 1008.3 1006.5 0.0
22/12:30pm 34.5 38.6 22.9 51 8.1 S 6 11 3 6 1008.7 1006.9 0.0
22/12:00pm 34.4 38.6 23.1 51 7.9 SSE 6 13 3 7 1009.1 1007.3 0.0
22/11:30am 34.0 38.5 23.7 55 7.2 WSW 6 9 3 5 1009.2 1007.4 0.0
22/11:00am 33.5 38.1 23.8 57 6.8 S 6 11 3 6 1009.8 1008.0 0.0
22/10:30am 32.9 38.3 23.8 58 6.4 W 2 9 1 5 1010.2 1008.4 0.0
22/10:00am 32.1 36.9 24.2 63 5.6 NW 6 11 3 6 1010.3 1008.5 0.0
22/09:30am 31.0 35.5 24.6 68 4.5 W 9 13 5 7 1010.5 1008.8 0.0
22/09:00am 29.9 35.1 24.8 74 3.6 NW 6 11 3 6 1010.5 1008.8 0.0
22/08:30am 29.2 33.5 24.3 75 3.4 NW 9 13 5 7 1010.4 1008.6 0.0
22/08:00am 28.5 33.2 24.3 78 2.9 NW 7 11 4 6 1010.1 1008.3 0.0
22/07:30am 28.0 32.9 24.6 82 2.4 N 7 11 4 6 1010.0 1008.2 0.0
22/07:00am 27.4 32.0 24.7 85 1.9 N 9 11 5 6 1009.8 1008.0 0.0
22/06:30am 27.1 32.0 24.6 86 1.8 NNE 7 11 4 6 1009.6 1007.8 0.0
22/06:00am 26.9 31.3 24.4 86 1.7 N 9 11 5 6 1008.9 1007.1 0.0
22/05:30am 27.0 31.3 24.3 85 1.9 NNE 9 11 5 6 1008.8 1007.0 0.0
22/05:00am 27.1 31.9 24.4 85 1.9 NNE 7 9 4 5 1008.6 1006.8 0.0
22/04:30am 27.2 32.1 24.3 84 2.0 NNE 6 7 3 4 1008.4 1006.6 0.0
22/04:00am 27.5 32.1 24.1 82 2.4 N 7 13 4 7 1008.3 1006.5 0.0
22/03:30am 27.7 31.9 24.1 81 2.5 NNE 9 11 5 6 1008.2 1006.4 0.0
22/03:00am 28.0 32.1 24.0 79 2.8 NNE 9 13 5 7 1008.1 1006.3 0.0
22/02:30am 28.1 32.3 24.1 79 2.8 NNE 9 11 5 6 1008.2 1006.4 0.0
22/02:00am 28.1 32.7 24.1 79 2.8 NNE 7 9 4 5 1008.4 1006.6 0.0
22/01:30am 28.4 32.5 24.0 77 3.1 NNE 9 13 5 7 1008.5 1006.7 0.0
22/01:00am 28.3 32.5 24.1 78 2.9 NE 9 11 5 6 1008.7 1006.9 0.0
22/12:30am 27.9 33.6 23.7 78 2.9 CALM 0 0 0 0 1009.2 1007.4 0.0
22/12:00am 28.5 33.6 23.4 74 3.5 NNW 2 6 1 3 1009.3 1007.5 0.0
 
Date/Time
CST
Temp
°C
App
Temp
°C
Dew
Point
°C
Rel
Hum
%
Delta-T
°C
Wind Press
QNH
hPa
Press
MSL
hPa
Rain since
9am
mm
Dir  Spd
km/h
Gust
km/h
Spd
kts
Gust
kts
21/11:30pm 28.7 34.2 23.4 73 3.7 CALM 0 0 0 0 1009.5 1007.7 0.0
21/11:00pm 28.4 32.0 23.1 73 3.6 ESE 9 11 5 6 1009.5 1007.7 0.0
21/10:30pm 29.6 33.4 22.8 67 4.7 E 7 11 4 6 1009.3 1007.5 0.0
21/10:00pm 29.6 34.9 23.1 68 4.5 CALM 0 0 0 0 1009.2 1007.4 0.0
21/09:30pm 30.0 34.5 22.9 65 4.9 SSE 4 9 2 5 1008.9 1007.1 0.0
21/09:00pm 30.4 33.6 23.1 65 5.1 SSE 11 17 6 9 1008.6 1006.8 0.0
21/08:30pm 31.2 33.7 23.8 64 5.2 S 17 22 9 12 1008.3 1006.5 0.0
21/08:00pm 32.5 38.0 24.0 61 6.0 SW 2 19 1 10 1007.8 1006.0 0.0
21/07:30pm 33.2 38.1 22.3 52 7.5 CALM 0 0 0 0 1007.2 1005.4 0.0
21/07:00pm 34.1 39.3 22.8 51 7.9 CALM 0 0 0 0 1006.6 1004.7 0.0
21/06:30pm 35.8 38.2 20.1 40 10.6 NE 7 11 4 6 1005.8 1004.0 0.0
21/06:00pm 36.3 39.1 19.7 37 11.2 ESE 4 7 2 4 1005.7 1003.9 0.0
21/05:30pm 36.4 39.1 20.2 38 11.0 N 6 11 3 6 1005.6 1003.8 0.0
21/05:00pm 36.4 38.7 20.6 39 10.7 NNW 9 11 5 6 1005.5 1003.7 0.0
21/04:30pm 36.0 38.0 20.7 41 10.4 ESE 11 20 6 11 1005.6 1003.8 0.0
21/04:00pm 35.7 37.7 20.0 39 10.6 ENE 9 13 5 7 1005.5 1003.7 0.0
21/03:30pm 36.6 39.2 20.0 38 11.2 WSW 6 11 3 6 1005.7 1003.9 0.0
21/03:00pm 36.3 38.9 20.1 38 10.9 SE 6 13 3 7 1006.3 1004.4 0.0
21/02:30pm 36.5 40.1 23.0 45 9.5 S 9 13 5 7 1006.8 1005.0 0.0

Other Formats:

Comma delimited format used in spreadsheet applications
http://www.bom.gov.au/fwo/IDD60801/IDD60801.94255.axf

JavaScript Object Notation format (JSON) in row-major order
http://www.bom.gov.au/fwo/IDD60801/IDD60801.94255.json